Wednesday, December 19, 2018, 12:37 AM EST
Back to Local

KMTP, Montauk Airport

Location: Montauk, NY, United States Lat: 41.067
Local Time: 12:37 AM EST ( 5:37 GMT) Lon: -71.917
Time Zone: US/Eastern Elev: 6 ft

Show me the last for .
Show Decoded

2018-12-18 23:54 METAR KMTP 190454Z AUTO 30009G18KT M03/M09 A3010 RMK AO1 SLP191 T10281089
                 400501033 =
2018-12-18 22:54 METAR KMTP 190354Z AUTO 32013KT M02/M09 A3009 RMK AO1 SLP190 T10221089 =
2018-12-18 21:54 METAR KMTP 190254Z AUTO 32013G20KT M02/M09 A3009 RMK AO1 SLP188 T10221094 51005
                 =
2018-12-18 20:54 METAR KMTP 190154Z AUTO 31015G27KT M02/M10 A3008 RMK AO1 PK WND 31027/0154
                 SLP187 T10171100 =
2018-12-18 19:54 METAR KMTP 190054Z AUTO 31016G23KT M01/M10 A3008 RMK AO1 PK WND 31026/0037
                 SLP185 T10111100 =
2018-12-18 18:54 METAR KMTP 182354Z AUTO 32014G23KT M01/M10 A3007 RMK AO1 SLP183 T10111100 10006
                 21011 51023 =
2018-12-18 17:54 METAR KMTP 182254Z AUTO 31015G26KT 00/M10 A3006 RMK AO1 PK WND 31026/2249 SLP179
                 T00001100 =
2018-12-18 16:54 METAR KMTP 182154Z AUTO 31013G21KT 00/M11 A3004 RMK AO1 SLP172 T00001106 =
2018-12-18 15:54 METAR KMTP 182054Z AUTO 32011G20KT 00/M10 A3000 RMK AO1 SLP159 T00001100 53025 =
2018-12-18 14:54 METAR KMTP 181954Z AUTO 32013G22KT 01/M11 A2997 RMK AO1 SLP148 T00061106 =
2018-12-18 13:54 METAR KMTP 181854Z AUTO 32014G24KT 01/M11 A2995 RMK AO1 SLP143 T00061106 =
2018-12-18 12:54 METAR KMTP 181754Z AUTO 31015G24KT 00/M11 A2993 RMK AO1 PK WND 33026/1720 SLP134
                 T00001106 10006 21033 53002 =
2018-12-18 11:54 METAR KMTP 181654Z AUTO 32014G25KT M01/M11 A2992 RMK AO1 PK WND 31026/1600
                 SLP130 T10061106 =
2018-12-18 10:54 METAR KMTP 181554Z AUTO 32017G23KT M02/M12 A2991 RMK AO1 PK WND 31029/1514
                 SLP129 T10171117 =
2018-12-18 09:54 METAR KMTP 181454Z AUTO 32017G33KT M02/M11 A2992 RMK AO1 PK WND 32035/1356
                 SLP132 T10221106 52026 =
2018-12-18 08:54 METAR KMTP 181354Z AUTO 32019G31KT M03/M11 A2990 RMK AO1 PK WND 32032/1343
                 SLP126 T10281111 =
2018-12-18 07:54 METAR KMTP 181254Z AUTO 32023G32KT M03/M11 A2986 RMK AO1 PK WND 31035/1236
                 SLP112 T10331106 =
2018-12-18 06:54 METAR KMTP 181154Z AUTO 33020G33KT M03/M11 A2984 RMK AO1 PK WND 31038/1105
                 SLP106 T10281111 10050 21028 51039 =
2018-12-18 05:54 METAR KMTP 181054Z AUTO 31020G34KT M02/M10 A2981 RMK AO1 PK WND 29036/1038
                 SLP095 T10221100 =
2018-12-18 04:54 METAR KMTP 180954Z AUTO 30021G34KT M02/M09 A2977 RMK AO1 PK WND 31034/0950
                 SLP082 T10171094 =
2018-12-18 03:54 METAR KMTP 180854Z AUTO 31019G36KT 00/M08 A2973 RMK AO1 PK WND 32036/0850 SLP067
                 T00001078 51025 =
2018-12-18 02:54 METAR KMTP 180754Z AUTO 31019G31KT 02/M06 A2971 RMK AO1 PK WND 30035/0740 SLP059
                 T00221061 =
2018-12-18 01:54 METAR KMTP 180654Z AUTO 32019G28KT 03/M04 A2969 RMK AO1 PK WND 33030/0638 SLP053
                 T00281039 =
2018-12-18 00:54 METAR KMTP 180554Z AUTO 32015G30KT 05/M03 A2966 RMK AO1 PK WND 29032/0540 SLP042
                 T00501028 10056 20050 56009 =

Support USWX by starting your Amazon purchase here.